Time;durP1;ratioP1;P1;durP2;ratioP2;P2;SDS_P1;SDS_P2;PMS_P1;PMS_P2;Temp;Humidity;BMP_temperature;BMP_pressure;BME280_temperature;BME280_humidity;BME280_pressure;Samples;Min_cycle;Max_cycle;Signal;HPM_P1;HPM_P2
2024/01/03 00:01:33;;;;;;;10.32;2.45;;;;;;;11.21;81.33;98524.97;4988461;28;20080;-69
2024/01/03 00:04:01;;;;;;;11.55;2.22;;;;;;;11.23;80.36;98557.38;4986956;28;20125;-70
2024/01/03 00:06:33;;;;;;;13.45;2.25;;;;;;;11.25;81.08;98551.03;4993993;28;20638;-70
2024/01/03 00:09:02;;;;;;;7.80;1.90;;;;;;;11.23;80.31;98546.81;4987550;28;20129;-70
2024/01/03 00:11:32;;;;;;;11.80;2.38;;;;;;;11.24;80.15;98528.25;4990999;28;20497;-70
2024/01/03 00:14:27;;;;;;;7.10;1.50;;;;;;;11.24;80.68;98543.22;5006856;28;20050;-70
2024/01/03 00:17:02;;;;;;;8.18;1.75;;;;;;;11.23;80.25;98558.19;4987735;28;20050;-70
2024/01/03 00:19:34;;;;;;;6.93;1.42;;;;;;;11.25;79.18;98535.19;4987200;28;20663;-70
2024/01/03 00:22:01;;;;;;;6.00;1.50;;;;;;;11.28;78.55;98553.47;4987380;28;20410;-70
2024/01/03 00:24:31;;;;;;;6.10;1.35;;;;;;;11.30;77.57;98563.91;4992666;28;20050;-71
2024/01/03 00:26:58;;;;;;;7.65;1.75;;;;;;;11.28;78.03;98561.38;4988385;28;20141;-70
2024/01/03 00:29:25;;;;;;;7.15;1.38;;;;;;;11.28;78.08;98557.88;4985668;28;20068;-70
2024/01/03 00:31:52;;;;;;;5.90;1.25;;;;;;;11.28;77.60;98561.38;4986016;28;20054;-69
2024/01/03 00:34:22;;;;;;;10.88;1.52;;;;;;;11.26;78.38;98576.44;4985023;28;20130;-70
2024/01/03 00:36:53;;;;;;;6.10;1.42;;;;;;;11.28;77.43;98571.06;4983710;28;20737;-70
2024/01/03 00:39:32;;;;;;;7.15;1.50;;;;;;;11.30;76.81;98588.47;4991444;28;20121;-70
2024/01/03 00:41:59;;;;;;;8.88;2.00;;;;;;;11.27;77.18;98578.16;4985390;28;20046;-70
2024/01/03 00:44:27;;;;;;;6.03;1.30;;;;;;;11.26;77.13;98575.59;4987107;28;20050;-70
2024/01/03 00:46:56;;;;;;;7.53;1.92;;;;;;;11.23;77.21;98595.13;4988599;28;20042;-69
2024/01/03 00:49:24;;;;;;;8.82;1.23;;;;;;;11.24;76.20;98603.91;4986785;28;20050;-70
2024/01/03 00:51:54;;;;;;;10.30;1.80;;;;;;;11.23;77.14;98596.94;4987134;28;20065;-70
2024/01/03 00:54:24;;;;;;;11.57;1.75;;;;;;;11.22;77.26;98608.44;4988278;28;20050;-70
2024/01/03 00:56:53;;;;;;;9.10;1.75;;;;;;;11.20;77.31;98603.22;5006742;28;20052;-70
2024/01/03 00:59:21;;;;;;;8.82;2.33;;;;;;;11.18;78.10;98607.78;5007753;28;20046;-69
2024/01/03 01:01:48;;;;;;;8.32;2.00;;;;;;;11.16;78.32;98602.59;4988384;28;20105;-70
2024/01/03 01:04:16;;;;;;;11.40;2.10;;;;;;;11.15;78.64;98598.28;5019008;28;20129;-70
2024/01/03 01:06:43;;;;;;;12.65;2.28;;;;;;;11.12;79.09;98609.06;5004756;28;20606;-70
2024/01/03 01:09:10;;;;;;;10.95;2.05;;;;;;;11.10;79.58;98610.94;4989205;28;20050;-70
2024/01/03 01:11:37;;;;;;;10.63;2.33;;;;;;;11.13;79.62;98615.16;4991054;28;20050;-70
2024/01/03 01:14:04;;;;;;;14.75;2.75;;;;;;;11.10;80.36;98645.22;4992080;28;20050;-70
2024/01/03 01:16:31;;;;;;;15.30;2.85;;;;;;;11.08;80.67;98638.38;5021645;28;20046;-70
2024/01/03 01:18:58;;;;;;;15.55;3.13;;;;;;;11.05;81.65;98628.03;4989861;28;20685;-70
2024/01/03 01:21:26;;;;;;;13.77;2.40;;;;;;;11.05;82.00;98639.41;4989858;28;20056;-70
2024/01/03 01:23:53;;;;;;;12.18;2.28;;;;;;;11.03;82.61;98659.78;5009861;28;20586;-70
2024/01/03 01:26:20;;;;;;;11.63;2.10;;;;;;;11.01;83.21;98651.13;4992067;28;20941;-70
2024/01/03 01:28:47;;;;;;;14.95;2.88;;;;;;;11.02;83.31;98642.25;4990074;28;20604;-70
2024/01/03 01:31:14;;;;;;;16.80;2.92;;;;;;;11.01;83.82;98657.22;4990936;28;20050;-70
2024/01/03 01:33:41;;;;;;;14.93;3.13;;;;;;;10.97;84.68;98673.34;5019951;28;20129;-70
2024/01/03 01:36:08;;;;;;;14.55;3.13;;;;;;;10.95;85.05;98664.69;4981901;28;20046;-70
2024/01/03 01:38:35;;;;;;;10.88;2.55;;;;;;;10.90;85.61;98667.63;4996582;28;20758;-70
2024/01/03 01:41:02;;;;;;;14.93;2.80;;;;;;;10.82;85.81;98660.25;4990449;28;20045;-70
2024/01/03 01:43:29;;;;;;;12.77;2.58;;;;;;;10.78;85.66;98674.56;4991211;28;20066;-70
2024/01/03 01:45:57;;;;;;;14.75;2.97;;;;;;;10.72;86.47;98682.88;4990680;28;20129;-69
2024/01/03 01:48:24;;;;;;;13.75;3.13;;;;;;;10.71;86.30;98681.19;4986685;28;20118;-70
2024/01/03 01:50:52;;;;;;;17.55;2.80;;;;;;;10.68;86.76;98674.31;4991329;28;20042;-70
2024/01/03 01:53:20;;;;;;;15.13;3.20;;;;;;;10.67;87.04;98679.69;4990542;28;20038;-70
2024/01/03 01:55:48;;;;;;;15.23;2.75;;;;;;;10.70;87.53;98679.50;4998588;28;20747;-70
2024/01/03 01:58:16;;;;;;;15.38;3.40;;;;;;;10.70;88.13;98677.69;4989509;28;20108;-70
2024/01/03 02:00:43;;;;;;;13.63;3.28;;;;;;;10.71;88.50;98686.47;4989875;28;20085;-70
2024/01/03 02:03:11;;;;;;;15.38;2.55;;;;;;;10.70;88.67;98688.25;4987503;28;20462;-70
2024/01/03 02:05:39;;;;;;;18.08;3.63;;;;;;;10.72;88.68;98683.72;4997812;28;20045;-70
2024/01/03 02:08:10;;;;;;;16.70;3.17;;;;;;;10.68;89.19;98694.56;4992169;28;20054;-70
2024/01/03 02:10:38;;;;;;;14.40;3.35;;;;;;;10.67;89.43;98698.16;4992096;28;20074;-70
2024/01/03 02:13:06;;;;;;;20.02;3.45;;;;;;;10.69;88.55;98693.63;4989821;28;20045;-70
2024/01/03 02:15:33;;;;;;;14.90;3.25;;;;;;;10.69;88.94;98701.53;4991478;28;20132;-70
2024/01/03 02:18:01;;;;;;;15.60;2.88;;;;;;;10.68;89.49;98684.84;4988929;28;20124;-70
2024/01/03 02:20:33;;;;;;;21.40;4.10;;;;;;;10.69;89.63;98701.53;4989844;28;20042;-70
2024/01/03 02:23:00;;;;;;;15.02;3.33;;;;;;;10.70;89.54;98706.69;4990234;28;20073;-70
2024/01/03 02:25:27;;;;;;;15.50;3.33;;;;;;;10.70;89.36;98703.22;4990398;28;20463;-70
2024/01/03 02:27:55;;;;;;;22.27;3.33;;;;;;;10.72;89.66;98711.88;4988914;28;20042;-70
2024/01/03 02:30:21;;;;;;;15.88;3.53;;;;;;;10.70;90.01;98701.41;4989887;28;20418;-69
2024/01/03 02:32:49;;;;;;;18.23;3.67;;;;;;;10.71;89.95;98718.91;4989945;28;20140;-70
2024/01/03 02:35:16;;;;;;;18.45;3.10;;;;;;;10.74;89.48;98717.88;4990297;28;20054;-69
2024/01/03 02:37:43;;;;;;;11.05;2.58;;;;;;;10.73;89.01;98724.13;4988602;28;20046;-69
2024/01/03 02:40:11;;;;;;;14.73;2.70;;;;;;;10.75;88.93;98716.09;4989496;28;20121;-69
2024/01/03 02:42:38;;;;;;;16.00;3.17;;;;;;;10.79;87.55;98718.44;5008827;28;20052;-69
2024/01/03 02:45:06;;;;;;;12.95;3.05;;;;;;;10.82;87.99;98718.25;5001986;28;20053;-70
2024/01/03 02:47:33;;;;;;;13.45;3.17;;;;;;;10.84;87.59;98720.78;5004909;28;20537;-70
2024/01/03 02:50:00;;;;;;;15.65;3.00;;;;;;;10.85;87.21;98711.91;4989457;28;20042;-70
2024/01/03 02:52:28;;;;;;;13.82;3.10;;;;;;;10.88;87.42;98717.00;4989368;28;20059;-70
2024/01/03 02:54:55;;;;;;;15.90;3.40;;;;;;;10.87;87.53;98726.69;4988620;28;20053;-70
2024/01/03 02:57:25;;;;;;;14.77;2.92;;;;;;;10.88;87.89;98731.00;4987336;28;20497;-70
2024/01/03 02:59:52;;;;;;;21.17;3.55;;;;;;;10.87;88.74;98728.47;4987938;28;20584;-70
2024/01/03 03:02:19;;;;;;;13.98;3.30;;;;;;;10.86;89.89;98732.06;4989954;28;20048;-70
2024/01/03 03:04:47;;;;;;;18.00;3.22;;;;;;;10.83;91.02;98735.75;4989842;28;20046;-71
2024/01/03 03:07:14;;;;;;;17.20;3.83;;;;;;;10.78;92.51;98735.19;4989336;28;20042;-72
2024/01/03 03:09:41;;;;;;;18.40;3.95;;;;;;;10.73;93.16;98742.56;4990185;28;20525;-72
2024/01/03 03:12:08;;;;;;;15.88;3.15;;;;;;;10.70;93.60;98743.59;4991147;28;20050;-72
2024/01/03 03:14:35;;;;;;;21.33;3.70;;;;;;;10.67;94.07;98742.94;4989957;28;20101;-72
2024/01/03 03:17:02;;;;;;;18.35;3.83;;;;;;;10.64;94.21;98736.09;4990273;28;20038;-72
2024/01/03 03:19:29;;;;;;;23.63;3.95;;;;;;;10.62;95.01;98740.59;5000296;28;20124;-72
2024/01/03 03:21:56;;;;;;;16.33;3.30;;;;;;;10.60;95.06;98745.13;4996961;28;20624;-72
2024/01/03 03:24:23;;;;;;;15.15;3.22;;;;;;;10.56;95.24;98741.84;4986112;28;20042;-72
2024/01/03 03:26:51;;;;;;;16.05;3.42;;;;;;;10.53;95.38;98755.19;4988229;28;20046;-72
2024/01/03 03:29:18;;;;;;;16.23;3.85;;;;;;;10.52;95.84;98743.00;4988932;28;20072;-72
2024/01/03 03:31:45;;;;;;;15.80;3.80;;;;;;;10.52;95.71;98750.91;4989101;28;20054;-70
2024/01/03 03:34:18;;;;;;;15.70;3.33;;;;;;;10.52;95.72;98750.91;4988626;28;20517;-70
2024/01/03 03:36:45;;;;;;;15.75;3.67;;;;;;;10.50;96.05;98751.91;4995318;28;20053;-70
2024/01/03 03:39:13;;;;;;;14.70;3.50;;;;;;;10.51;95.85;98748.34;5002698;28;20477;-70
2024/01/03 03:41:40;;;;;;;13.05;3.28;;;;;;;10.48;95.84;98753.81;4988007;28;20061;-70
2024/01/03 03:44:07;;;;;;;19.65;3.50;;;;;;;10.45;95.87;98759.28;4989846;28;20053;-70
2024/01/03 03:46:34;;;;;;;17.40;3.15;;;;;;;10.42;96.18;98765.59;4983268;28;20070;-70
2024/01/03 03:49:01;;;;;;;16.80;3.88;;;;;;;10.40;96.85;98756.94;4988192;28;20106;-70
2024/01/03 03:51:29;;;;;;;15.15;3.08;;;;;;;10.38;96.68;98766.72;4988824;28;20125;-69
2024/01/03 03:53:56;;;;;;;16.55;3.20;;;;;;;10.37;96.82;98764.97;4988619;28;20034;-70
2024/01/03 03:56:25;;;;;;;15.38;3.60;;;;;;;10.37;97.15;98771.16;4987494;28;20104;-70
2024/01/03 03:58:52;;;;;;;19.40;3.47;;;;;;;10.37;97.32;98765.88;5004114;28;20778;-70
2024/01/03 04:01:19;;;;;;;16.58;2.85;;;;;;;10.38;97.55;98770.19;4987563;28;20162;-70
2024/01/03 04:03:46;;;;;;;22.75;3.38;;;;;;;10.39;97.31;98766.59;4989400;28;20052;-70
2024/01/03 04:06:15;;;;;;;18.65;3.53;;;;;;;10.35;97.52;98758.97;5000598;28;20054;-70
2024/01/03 04:08:44;;;;;;;17.35;3.10;;;;;;;10.31;98.22;98765.38;5008105;28;20038;-70
2024/01/03 04:11:12;;;;;;;16.33;3.40;;;;;;;10.27;98.52;98764.72;4990869;28;20053;-70
2024/01/03 04:13:39;;;;;;;19.40;3.75;;;;;;;10.24;98.97;98775.44;5000055;28;20483;-70
2024/01/03 04:16:10;;;;;;;20.55;3.55;;;;;;;10.21;99.84;98780.88;4989272;28;20051;-70
2024/01/03 04:18:37;;;;;;;19.33;3.72;;;;;;;10.16;100.00;98756.66;4986031;28;20121;-70
2024/01/03 04:21:06;;;;;;;22.65;3.30;;;;;;;10.10;100.00;98789.47;4975542;28;20042;-71
2024/01/03 04:23:34;;;;;;;20.85;3.97;;;;;;;10.02;100.00;98787.28;4987154;28;20054;-71
2024/01/03 04:26:01;;;;;;;17.90;3.75;;;;;;;9.97;100.00;98791.13;4988521;28;20045;-71
2024/01/03 04:28:28;;;;;;;22.23;4.32;;;;;;;9.90;100.00;98796.78;4988252;28;20046;-71
2024/01/03 04:30:55;;;;;;;19.95;3.70;;;;;;;9.84;100.00;98786.59;4988687;28;20046;-71
2024/01/03 04:33:23;;;;;;;15.73;3.50;;;;;;;9.76;100.00;98791.50;4997631;28;20039;-71
2024/01/03 04:35:50;;;;;;;21.60;3.67;;;;;;;9.70;100.00;98797.97;4986842;28;20123;-71
2024/01/03 04:38:17;;;;;;;20.20;4.18;;;;;;;9.61;100.00;98790.63;4987034;28;20494;-71
2024/01/03 04:40:45;;;;;;;21.48;4.07;;;;;;;9.54;100.00;98763.81;4988071;28;20057;-72
2024/01/03 04:43:12;;;;;;;16.90;2.78;;;;;;;9.39;100.00;98802.38;4988034;28;20049;-71
2024/01/03 04:45:39;;;;;;;10.40;2.40;;;;;;;9.29;100.00;98809.97;4986996;28;20050;-71
2024/01/03 04:48:07;;;;;;;14.05;2.75;;;;;;;9.23;100.00;98785.81;5019671;28;20045;-71
2024/01/03 04:50:34;;;;;;;12.43;2.30;;;;;;;9.17;100.00;98800.97;4987600;28;20069;-70
2024/01/03 04:53:02;;;;;;;18.08;3.00;;;;;;;9.13;100.00;98804.75;4985776;28;20127;-70
2024/01/03 04:55:29;;;;;;;17.50;3.00;;;;;;;9.11;100.00;98806.59;4988973;28;20046;-70
2024/01/03 04:57:57;;;;;;;18.38;3.40;;;;;;;9.11;100.00;98800.47;4987872;28;20042;-70
2024/01/03 05:00:25;;;;;;;14.93;2.97;;;;;;;9.11;100.00;98792.59;4986530;28;20246;-70
2024/01/03 05:02:54;;;;;;;15.30;3.08;;;;;;;9.09;100.00;98791.88;4988037;28;20053;-70
2024/01/03 05:05:22;;;;;;;13.57;2.67;;;;;;;9.08;100.00;98788.38;4994068;28;20037;-70
2024/01/03 05:07:49;;;;;;;14.20;2.22;;;;;;;9.07;100.00;98793.72;5007129;28;20095;-70
2024/01/03 05:10:16;;;;;;;12.85;2.42;;;;;;;9.05;100.00;98803.47;4993502;28;20050;-70
2024/01/03 05:12:44;;;;;;;12.88;2.45;;;;;;;9.02;100.00;98796.63;4986441;28;20050;-70
2024/01/03 05:15:11;;;;;;;9.52;2.50;;;;;;;9.02;100.00;98801.88;4987088;28;20047;-70
2024/01/03 05:17:38;;;;;;;16.13;3.08;;;;;;;9.02;100.00;98792.19;4987975;28;20476;-70
2024/01/03 05:20:06;;;;;;;9.77;2.40;;;;;;;9.06;100.00;98792.03;4987967;28;20431;-70
2024/01/03 05:22:34;;;;;;;12.60;2.08;;;;;;;9.08;100.00;98796.25;4986084;28;20542;-70
2024/01/03 05:25:01;;;;;;;10.98;2.28;;;;;;;9.11;100.00;98800.47;4997299;28;20045;-69
2024/01/03 05:27:28;;;;;;;8.52;1.90;;;;;;;9.11;100.00;98798.72;4991597;28;20079;-70
2024/01/03 05:29:55;;;;;;;9.40;1.77;;;;;;;9.14;100.00;98798.56;4986138;28;20026;-70
2024/01/03 05:32:25;;;;;;;9.13;1.70;;;;;;;9.17;100.00;98803.63;4986614;28;20074;-70
2024/01/03 05:34:52;;;;;;;7.75;1.60;;;;;;;9.20;100.00;98814.91;4987694;28;20521;-70
2024/01/03 05:37:19;;;;;;;9.45;1.50;;;;;;;9.19;100.00;98814.06;4986815;28;20057;-70
2024/01/03 05:39:47;;;;;;;7.65;1.60;;;;;;;9.17;100.00;98808.88;4986681;28;20046;-70
2024/01/03 05:42:14;;;;;;;8.10;1.50;;;;;;;9.15;100.00;98816.03;4987866;28;20049;-70
2024/01/03 05:44:41;;;;;;;8.18;2.08;;;;;;;9.11;100.00;98822.38;4990578;28;20045;-70
2024/01/03 05:47:09;;;;;;;8.68;1.85;;;;;;;9.10;100.00;98817.22;4997237;28;20050;-70
2024/01/03 05:49:36;;;;;;;8.35;1.70;;;;;;;9.09;100.00;98820.78;4984790;28;20125;-70
2024/01/03 05:52:04;;;;;;;5.88;1.08;;;;;;;9.08;100.00;98814.66;4986963;28;20038;-70
2024/01/03 05:54:32;;;;;;;9.45;1.58;;;;;;;9.06;100.00;98813.88;4986101;28;20054;-70
2024/01/03 05:57:03;;;;;;;8.30;1.55;;;;;;;9.03;100.00;98814.09;4990313;28;20096;-71
2024/01/03 05:59:30;;;;;;;5.78;1.30;;;;;;;9.02;100.00;98820.28;4991372;28;20050;-70
2024/01/03 06:01:57;;;;;;;8.35;1.30;;;;;;;9.02;100.00;98813.22;4989820;28;20049;-70
2024/01/03 06:04:25;;;;;;;8.95;1.48;;;;;;;9.04;100.00;98815.78;5005644;28;20042;-70
2024/01/03 06:06:52;;;;;;;5.72;1.38;;;;;;;9.08;100.00;98821.72;4991465;28;20490;-70
2024/01/03 06:09:19;;;;;;;6.63;1.17;;;;;;;9.07;100.00;98817.38;4989673;28;20041;-70
2024/01/03 06:11:46;;;;;;;5.78;1.60;;;;;;;9.08;100.00;98813.81;4989126;28;20522;-70
2024/01/03 06:14:13;;;;;;;9.82;1.48;;;;;;;9.08;100.00;98813.81;4987547;28;20703;-70
2024/01/03 06:16:41;;;;;;;4.57;1.20;;;;;;;9.09;100.00;98818.16;4989844;28;20448;-71
2024/01/03 06:19:08;;;;;;;7.72;1.60;;;;;;;9.10;100.00;98814.59;4988848;28;20082;-70
2024/01/03 06:21:35;;;;;;;6.03;1.50;;;;;;;9.09;100.00;98816.34;4989632;28;20070;-71
2024/01/03 06:24:03;;;;;;;4.43;0.93;;;;;;;9.08;100.00;98812.03;4989390;28;20121;-71
2024/01/03 06:26:30;;;;;;;5.43;1.30;;;;;;;9.07;100.00;98809.50;4991327;28;20117;-70
2024/01/03 06:28:58;;;;;;;4.72;1.13;;;;;;;9.06;100.00;98813.06;5021410;28;20035;-70
2024/01/03 06:31:26;;;;;;;6.15;1.10;;;;;;;9.05;100.00;98824.50;4990082;28;20054;-70
2024/01/03 06:33:53;;;;;;;4.75;1.20;;;;;;;9.04;100.00;98825.44;4988328;28;20054;-70
2024/01/03 06:36:20;;;;;;;5.05;1.13;;;;;;;9.03;100.00;98816.72;4989612;28;20715;-70
2024/01/03 06:38:48;;;;;;;5.75;1.52;;;;;;;9.05;100.00;98833.25;4986896;28;20581;-70
2024/01/03 06:41:16;;;;;;;8.30;1.60;;;;;;;9.06;100.00;98834.91;4991415;28;20042;-71
2024/01/03 06:43:43;;;;;;;8.95;1.20;;;;;;;9.07;100.00;98846.28;4990936;28;20122;-70
2024/01/03 06:46:10;;;;;;;6.65;1.02;;;;;;;9.08;100.00;98843.56;4987944;28;20045;-71
2024/01/03 06:48:37;;;;;;;7.47;1.73;;;;;;;9.08;100.00;98848.00;5001844;28;20141;-70
2024/01/03 06:51:04;;;;;;;5.05;1.23;;;;;;;9.04;100.00;98846.47;4988841;28;20580;-71
2024/01/03 06:53:33;;;;;;;7.03;1.55;;;;;;;8.99;100.00;98852.84;4988759;28;20050;-72
2024/01/03 06:56:01;;;;;;;5.68;1.38;;;;;;;8.96;100.00;98833.72;4989200;28;20322;-70
2024/01/03 06:58:28;;;;;;;8.63;1.58;;;;;;;8.91;100.00;98836.63;4989593;28;20070;-71
2024/01/03 07:00:55;;;;;;;4.75;1.30;;;;;;;8.88;100.00;98843.81;4988895;28;20129;-69
2024/01/03 07:03:22;;;;;;;5.32;1.30;;;;;;;8.84;100.00;98836.13;4989359;28;20046;-72
2024/01/03 07:05:49;;;;;;;4.35;1.20;;;;;;;8.80;100.00;98850.34;4992106;28;20129;-72
2024/01/03 07:08:16;;;;;;;3.08;0.90;;;;;;;8.77;100.00;98847.06;4988306;28;20045;-72
2024/01/03 07:10:44;;;;;;;6.40;1.13;;;;;;;8.80;100.00;98852.16;4988446;28;20077;-71
2024/01/03 07:13:11;;;;;;;5.43;1.00;;;;;;;8.83;100.00;98844.09;4988393;28;20035;-71
2024/01/03 07:15:38;;;;;;;5.35;1.27;;;;;;;8.85;100.00;98852.72;4989374;28;20042;-72
2024/01/03 07:18:06;;;;;;;5.75;1.00;;;;;;;8.89;100.00;98853.41;4989454;28;20140;-71
2024/01/03 07:20:33;;;;;;;4.20;0.80;;;;;;;8.90;100.00;98857.75;4987511;28;20031;-71
2024/01/03 07:23:01;;;;;;;3.88;0.80;;;;;;;8.89;100.00;98863.91;4988964;28;20121;-71
2024/01/03 07:25:28;;;;;;;4.05;0.70;;;;;;;8.84;100.00;98857.16;4988983;28;20038;-72
2024/01/03 07:27:55;;;;;;;2.17;0.70;;;;;;;8.83;100.00;98858.09;4988233;28;20046;-72
2024/01/03 07:30:25;;;;;;;5.82;1.00;;;;;;;8.83;100.00;98855.47;4989542;28;20095;-72
2024/01/03 07:32:57;;;;;;;5.75;1.13;;;;;;;8.81;100.00;98859.06;4986712;28;20158;-77
2024/01/03 07:35:25;;;;;;;7.28;1.20;;;;;;;8.78;100.00;98856.63;4986416;28;20046;-71
2024/01/03 07:37:52;;;;;;;5.50;1.35;;;;;;;8.79;100.00;98853.09;4988448;28;20069;-71
2024/01/03 07:40:20;;;;;;;2.95;0.70;;;;;;;8.83;100.00;98859.84;4987715;28;20038;-70
2024/01/03 07:42:48;;;;;;;4.00;0.90;;;;;;;8.89;100.00;98869.19;5001817;28;20042;-70
2024/01/03 07:45:16;;;;;;;3.33;0.90;;;;;;;8.91;100.00;98873.41;4987348;28;20046;-71
2024/01/03 07:47:43;;;;;;;3.38;0.70;;;;;;;8.96;100.00;98889.78;4998269;28;20525;-71
2024/01/03 07:50:11;;;;;;;3.80;0.73;;;;;;;8.98;100.00;98885.31;5009715;28;20050;-71
2024/01/03 07:52:39;;;;;;;2.08;0.60;;;;;;;8.99;100.00;98881.75;5002096;28;20121;-71
2024/01/03 07:55:06;;;;;;;2.30;0.60;;;;;;;9.01;100.00;98884.28;4986339;28;20050;-71
2024/01/03 07:57:33;;;;;;;1.55;0.50;;;;;;;9.01;100.00;98890.38;4988927;28;20050;-71
2024/01/03 08:00:00;;;;;;;1.58;0.75;;;;;;;9.00;100.00;98880.78;4987890;28;20046;-71
2024/01/03 08:02:29;;;;;;;2.60;0.65;;;;;;;9.04;100.00;98884.13;4986090;28;20050;-71
2024/01/03 08:04:56;;;;;;;2.60;0.60;;;;;;;9.04;100.00;98883.25;4987009;28;20073;-71
2024/01/03 08:07:23;;;;;;;1.58;0.50;;;;;;;9.01;100.00;98895.63;4988140;28;20057;-71
2024/01/03 08:09:51;;;;;;;1.00;0.45;;;;;;;9.00;100.00;98899.19;4987549;28;20511;-71
2024/01/03 08:12:18;;;;;;;2.65;0.50;;;;;;;9.02;100.00;98897.31;4987488;28;20049;-71
2024/01/03 08:14:45;;;;;;;2.53;0.40;;;;;;;8.99;100.00;98900.16;4988434;28;20499;-71
2024/01/03 08:17:12;;;;;;;1.92;0.40;;;;;;;8.99;100.00;98909.78;4987896;28;20459;-71
2024/01/03 08:19:40;;;;;;;2.35;0.57;;;;;;;9.01;100.00;98908.75;4987494;28;20038;-71
2024/01/03 08:22:07;;;;;;;1.58;0.40;;;;;;;9.02;100.00;98912.25;4988387;28;20038;-71
2024/01/03 08:24:35;;;;;;;1.40;0.47;;;;;;;9.03;100.00;98911.34;5018029;28;20046;-71
2024/01/03 08:27:03;;;;;;;1.88;0.68;;;;;;;9.02;100.00;98915.72;5003151;28;20073;-71
2024/01/03 08:29:30;;;;;;;1.77;0.60;;;;;;;9.02;100.00;98904.38;4985683;28;20046;-71
2024/01/03 08:31:58;;;;;;;2.08;0.80;;;;;;;8.94;100.00;98912.66;4988482;28;20058;-71
2024/01/03 08:34:25;;;;;;;2.95;0.90;;;;;;;8.85;100.00;98910.53;4987670;28;20045;-72
2024/01/03 08:36:53;;;;;;;2.88;1.00;;;;;;;8.79;100.00;98911.72;4986834;28;20748;-71
2024/01/03 08:39:21;;;;;;;3.72;1.20;;;;;;;8.76;100.00;98918.91;4988148;28;20068;-71
2024/01/03 08:41:49;;;;;;;4.50;1.30;;;;;;;8.75;100.00;98914.59;4986259;28;20054;-71
2024/01/03 08:44:16;;;;;;;6.22;1.48;;;;;;;8.70;100.00;98915.69;4989209;28;20043;-71
2024/01/03 08:46:43;;;;;;;7.57;1.80;;;;;;;8.70;100.00;98918.31;4986213;28;20636;-71
2024/01/03 08:49:12;;;;;;;4.45;1.50;;;;;;;8.73;100.00;98922.56;4986936;28;20061;-71
2024/01/03 08:51:48;;;;;;;4.78;1.40;;;;;;;8.74;100.00;98919.00;4986061;28;20042;-71
2024/01/03 08:54:15;;;;;;;4.28;1.73;;;;;;;8.74;100.00;98936.53;4988441;28;20046;-72
2024/01/03 08:56:42;;;;;;;7.70;1.55;;;;;;;8.74;100.00;98926.03;4985009;28;20227;-71
2024/01/03 08:59:09;;;;;;;7.53;1.70;;;;;;;8.77;100.00;98939.00;4988592;28;20089;-71
2024/01/03 09:01:36;;;;;;;9.80;1.48;;;;;;;8.76;100.00;98932.06;4988184;28;20125;-71
2024/01/03 09:04:04;;;;;;;9.05;3.10;;;;;;;8.76;100.00;98932.91;4989353;28;20042;-71
2024/01/03 09:06:35;;;;;;;36.15;21.13;;;;;;;8.79;100.00;98938.00;4983587;28;20078;-71
2024/01/03 09:09:02;;;;;;;38.50;17.73;;;;;;;8.79;100.00;98938.00;4983695;28;20520;-71
2024/01/03 09:11:30;;;;;;;118.15;58.03;;;;;;;8.79;100.00;98932.75;4989543;28;20050;-71
2024/01/03 09:13:57;;;;;;;31.88;13.15;;;;;;;8.84;100.00;98937.75;4988543;28;20058;-71
2024/01/03 09:16:26;;;;;;;97.75;43.13;;;;;;;8.90;100.00;98941.81;4989503;28;20046;-71
2024/01/03 09:18:54;;;;;;;33.90;13.70;;;;;;;8.95;100.00;98945.06;4988937;28;20042;-71
2024/01/03 09:21:22;;;;;;;9.88;3.08;;;;;;;9.01;100.00;98942.94;4988571;28;20071;-72
2024/01/03 09:23:50;;;;;;;12.10;4.03;;;;;;;9.05;100.00;98946.28;4987540;28;20038;-72
2024/01/03 09:26:22;;;;;;;15.82;4.55;;;;;;;9.08;100.00;98946.09;4985501;28;20046;-71
2024/01/03 09:28:52;;;;;;;16.17;3.40;;;;;;;9.15;100.00;98949.22;4988103;28;20070;-69
2024/01/03 09:31:19;;;;;;;12.07;2.72;;;;;;;9.21;100.00;98953.31;4990464;28;20062;-71
2024/01/03 09:33:47;;;;;;;14.40;2.92;;;;;;;9.24;100.00;98953.97;4992616;28;20039;-71
2024/01/03 09:36:21;;;;;;;16.33;3.30;;;;;;;9.25;100.00;98952.22;5007655;28;20096;-72
2024/01/03 09:38:54;;;;;;;13.35;3.30;;;;;;;9.28;100.00;98950.25;4992361;28;20073;-70
2024/01/03 09:41:22;;;;;;;14.77;2.80;;;;;;;9.32;100.00;98945.69;4990416;28;20092;-70
2024/01/03 09:43:55;;;;;;;12.43;3.20;;;;;;;9.36;100.00;98955.09;4984896;28;20482;-70
2024/01/03 09:46:23;;;;;;;12.23;3.55;;;;;;;9.42;100.00;98946.88;4991157;28;20043;-70
2024/01/03 09:48:51;;;;;;;16.45;4.28;;;;;;;9.45;100.00;98956.38;4971200;28;20129;-70
2024/01/03 09:51:20;;;;;;;17.15;3.22;;;;;;;9.48;100.00;98964.94;4989107;28;20037;-69
2024/01/03 09:53:52;;;;;;;18.20;6.35;;;;;;;9.53;100.00;98966.47;4990506;28;20499;-70
2024/01/03 09:56:19;;;;;;;18.10;4.20;;;;;;;9.59;100.00;98972.22;4990670;28;20113;-70
2024/01/03 09:58:46;;;;;;;19.67;4.25;;;;;;;9.64;100.00;98967.53;4991524;28;20053;-69
2024/01/03 10:01:15;;;;;;;20.40;3.88;;;;;;;9.68;100.00;98967.38;4987053;28;20034;-70
2024/01/03 10:03:43;;;;;;;19.67;3.53;;;;;;;9.73;100.00;98965.31;4997123;28;20043;-69
2024/01/03 10:06:15;;;;;;;22.25;3.75;;;;;;;9.78;100.00;98965.94;4989160;28;20687;-69
2024/01/03 10:09:01;;;;;;;21.08;3.95;;;;;;;9.89;100.00;98968.81;4985352;28;20042;-69
2024/01/03 10:11:29;;;;;;;15.63;3.22;;;;;;;9.97;100.00;98973.59;4986957;28;20046;-69
2024/01/03 10:14:14;;;;;;;16.85;4.38;;;;;;;10.08;100.00;98968.56;4988411;28;20482;-69
2024/01/03 10:16:44;;;;;;;17.23;4.78;;;;;;;10.15;100.00;98968.22;4989735;28;20038;-69
2024/01/03 10:19:20;;;;;;;17.20;3.47;;;;;;;10.16;100.00;98962.03;4991938;28;20035;-70
2024/01/03 10:21:51;;;;;;;21.15;5.32;;;;;;;10.17;100.00;98975.09;4989647;28;20049;-69
2024/01/03 10:24:25;;;;;;;15.77;3.97;;;;;;;10.20;100.00;98969.66;4990904;28;20046;-70
2024/01/03 10:26:54;;;;;;;13.95;3.55;;;;;;;10.20;100.00;98969.66;4988614;28;20200;-70
2024/01/03 10:29:22;;;;;;;11.77;2.83;;;;;;;10.22;100.00;98969.56;4989817;28;20101;-70
2024/01/03 10:31:50;;;;;;;14.77;3.60;;;;;;;10.21;100.00;98974.00;4990598;28;20046;-71
2024/01/03 10:34:23;;;;;;;16.00;3.30;;;;;;;10.29;100.00;98976.16;4988336;28;20039;-70
2024/01/03 10:36:53;;;;;;;17.88;3.25;;;;;;;10.33;100.00;98967.13;4990043;28;20054;-71
2024/01/03 10:39:23;;;;;;;15.93;2.92;;;;;;;10.32;100.00;98967.25;4987870;28;20058;-70
2024/01/03 10:41:53;;;;;;;15.23;3.33;;;;;;;10.29;100.00;98977.94;4988355;28;20137;-70
2024/01/03 10:44:21;;;;;;;17.40;3.20;;;;;;;10.28;100.00;98969.19;4989895;28;20049;-70
2024/01/03 10:46:51;;;;;;;19.55;3.47;;;;;;;10.31;100.00;98995.34;4986053;28;20038;-70
2024/01/03 10:49:18;;;;;;;16.25;3.53;;;;;;;10.32;100.00;98973.34;4987826;28;20244;-70
2024/01/03 10:52:04;;;;;;;17.65;3.10;;;;;;;10.34;100.00;98986.41;5003514;28;20042;-70
2024/01/03 10:54:43;;;;;;;17.35;4.13;;;;;;;10.32;100.00;98983.03;4985262;28;20137;-70
2024/01/03 10:57:16;;;;;;;21.20;5.55;;;;;;;10.31;100.00;98981.34;4986984;28;20121;-70
2024/01/03 10:59:59;;;;;;;18.77;3.80;;;;;;;10.33;100.00;98990.84;4988034;28;20442;-70
2024/01/03 11:02:41;;;;;;;19.67;4.70;;;;;;;10.38;100.00;98993.25;4991287;28;20490;-70
2024/01/03 11:05:34;;;;;;;21.15;6.93;;;;;;;10.47;100.00;98987.41;4993896;28;20061;-70
2024/01/03 11:08:11;;;;;;;17.88;5.38;;;;;;;10.59;100.00;98996.38;4983122;28;20498;-70
2024/01/03 11:10:53;;;;;;;16.45;3.47;;;;;;;10.63;100.00;98999.69;4988484;28;20043;-70
2024/01/03 11:13:32;;;;;;;11.43;3.00;;;;;;;10.66;100.00;98995.09;4985291;28;20053;-70
2024/01/03 11:16:02;;;;;;;17.73;3.45;;;;;;;10.62;100.00;98990.09;4989606;28;20485;-70
2024/01/03 11:18:41;;;;;;;25.55;6.25;;;;;;;10.56;100.00;98994.78;5003760;28;20207;-70
2024/01/03 11:21:28;;;;;;;18.42;3.88;;;;;;;10.51;100.00;98983.69;4988844;28;20046;-70
2024/01/03 11:23:56;;;;;;;16.13;4.25;;;;;;;10.54;100.00;98985.28;4983429;28;20061;-70
2024/01/03 11:26:51;;;;;;;17.35;4.25;;;;;;;10.61;100.00;98978.69;4987470;28;20133;-70
2024/01/03 11:29:48;;;;;;;26.35;9.75;;;;;;;10.60;100.00;98981.44;4987262;28;20198;-70
2024/01/03 11:32:32;;;;;;;16.77;6.25;;;;;;;10.61;100.00;98991.88;4989302;28;20655;-70
2024/01/03 11:35:08;;;;;;;22.40;5.53;;;;;;;10.59;100.00;98982.38;4987768;28;20050;-70